Time,TemperatureF,DewpointF,PressureIn,WindDirection,WindDirectionDegrees,WindSpeedMPH,WindSpeedGustMPH,Humidity,HourlyPrecipIn,Conditions,Clouds,dailyrainin,SoftwareType,DateUTC
2013-07-14 00:09:00,73.3,72.4,30.00,East,96,0.0,4.0,97,0.00,,,0.00,Weather View 32 v70,2013-07-14 04:09:00,
2013-07-14 00:19:00,73.5,72.6,30.00,ESE,110,0.0,4.0,97,0.00,,,0.00,Weather View 32 v70,2013-07-14 04:19:00,
2013-07-14 00:29:00,73.3,72.1,30.00,SE,130,0.0,5.0,96,0.00,,,0.00,Weather View 32 v70,2013-07-14 04:29:00,
2013-07-14 00:39:00,73.4,72.5,30.00,SE,128,0.0,5.0,97,0.00,,,0.00,Weather View 32 v70,2013-07-14 04:39:00,
2013-07-14 00:49:00,73.6,72.7,29.99,ESE,115,0.0,5.0,97,0.00,,,0.00,Weather View 32 v70,2013-07-14 04:49:00,
2013-07-14 00:58:00,73.6,72.7,29.99,ESE,115,0.0,5.0,97,0.00,,,0.00,Weather View 32 v70,2013-07-14 04:58:00,
2013-07-14 01:09:00,73.6,72.7,29.99,ESE,117,0.0,5.0,97,0.00,,,0.00,Weather View 32 v70,2013-07-14 05:09:00,
2013-07-14 01:19:00,73.7,72.8,29.99,SE,133,0.0,5.0,97,0.00,,,0.00,Weather View 32 v70,2013-07-14 05:19:00,
2013-07-14 01:29:00,73.6,72.7,30.00,SE,138,0.0,4.0,97,0.00,,,0.00,Weather View 32 v70,2013-07-14 05:29:00,
2013-07-14 01:39:00,73.6,72.7,29.99,SE,138,0.0,3.0,97,0.00,,,0.00,Weather View 32 v70,2013-07-14 05:39:00,
2013-07-14 01:49:00,73.0,72.1,29.99,SE,138,0.0,3.0,97,0.00,,,0.00,Weather View 32 v70,2013-07-14 05:49:00,
2013-07-14 01:59:00,73.0,72.1,29.99,SE,138,0.0,3.0,97,0.00,,,0.00,Weather View 32 v70,2013-07-14 05:59:00,
2013-07-14 02:09:00,73.5,72.6,29.99,ENE,73,2.0,3.0,97,0.00,,,0.00,Weather View 32 v70,2013-07-14 06:09:00,
2013-07-14 02:19:00,73.8,72.9,29.99,East,84,1.0,3.0,97,0.00,,,0.00,Weather View 32 v70,2013-07-14 06:19:00,
2013-07-14 02:29:00,73.6,72.4,29.99,East,84,0.0,2.0,96,0.00,,,0.00,Weather View 32 v70,2013-07-14 06:29:00,
2013-07-14 02:39:00,73.3,72.1,29.99,East,84,0.0,2.0,96,0.00,,,0.00,Weather View 32 v70,2013-07-14 06:39:00,
2013-07-14 02:49:00,73.2,72.0,29.99,ENE,75,1.0,2.0,96,0.00,,,0.00,Weather View 32 v70,2013-07-14 06:49:00,
2013-07-14 03:00:00,73.1,71.9,29.99,ENE,74,0.0,2.0,96,0.00,,,0.00,Weather View 32 v70,2013-07-14 07:00:00,
2013-07-14 03:09:00,72.9,71.7,29.98,NE,53,1.0,2.0,96,0.00,,,0.00,Weather View 32 v70,2013-07-14 07:09:00,
2013-07-14 03:19:00,72.6,71.4,29.98,NE,53,0.0,2.0,96,0.00,,,0.00,Weather View 32 v70,2013-07-14 07:19:00,
2013-07-14 03:29:00,71.9,70.7,29.98,NE,53,0.0,2.0,96,0.00,,,0.00,Weather View 32 v70,2013-07-14 07:29:00,
2013-07-14 03:39:00,72.0,70.8,29.97,North,355,0.0,2.0,96,0.00,,,0.00,Weather View 32 v70,2013-07-14 07:39:00,
2013-07-14 03:49:00,72.0,70.8,29.97,North,9,0.0,2.0,96,0.00,,,0.00,Weather View 32 v70,2013-07-14 07:49:00,
2013-07-14 03:59:00,71.6,70.4,29.97,North,9,0.0,2.0,96,0.00,,,0.00,Weather View 32 v70,2013-07-14 07:59:00,
2013-07-14 04:00:00,71.6,70.4,29.97,North,9,0.0,2.0,96,0.00,,,0.00,Weather View 32 v70,2013-07-14 08:00:00,
2013-07-14 04:09:00,71.8,70.6,29.97,NNE,26,0.0,2.0,96,0.00,,,0.00,Weather View 32 v70,2013-07-14 08:09:00,
2013-07-14 04:19:00,71.5,70.3,29.97,NNE,26,0.0,2.0,96,0.00,,,0.00,Weather View 32 v70,2013-07-14 08:19:00,
2013-07-14 04:29:00,71.3,70.1,29.97,NNE,26,0.0,2.0,96,0.00,,,0.00,Weather View 32 v70,2013-07-14 08:29:00,
2013-07-14 04:39:00,71.4,70.5,29.98,NNE,26,0.0,2.0,97,0.00,,,0.00,Weather View 32 v70,2013-07-14 08:39:00,
2013-07-14 04:49:00,71.0,69.8,29.98,NNE,18,0.0,2.0,96,0.00,,,0.00,Weather View 32 v70,2013-07-14 08:49:00,
2013-07-14 04:59:00,70.6,69.4,29.98,NNE,17,0.0,2.0,96,0.00,,,0.00,Weather View 32 v70,2013-07-14 08:59:00,
2013-07-14 05:01:00,70.6,69.4,29.98,NNE,17,0.0,2.0,96,0.00,,,0.00,Weather View 32 v70,2013-07-14 09:01:00,
2013-07-14 05:09:00,71.2,70.3,29.98,NNE,17,0.0,2.0,97,0.00,,,0.00,Weather View 32 v70,2013-07-14 09:09:00,
2013-07-14 05:19:00,70.9,69.7,29.98,NNE,17,0.0,2.0,96,0.01,,,0.01,Weather View 32 v70,2013-07-14 09:19:00,
2013-07-14 05:29:00,71.6,70.7,29.99,NNE,33,0.0,2.0,97,0.01,,,0.01,Weather View 32 v70,2013-07-14 09:29:00,
2013-07-14 05:39:00,71.3,70.1,29.99,NNE,32,0.0,2.0,96,0.01,,,0.01,Weather View 32 v70,2013-07-14 09:39:00,
2013-07-14 05:49:00,71.2,70.3,29.99,NNE,32,0.0,1.0,97,0.01,,,0.01,Weather View 32 v70,2013-07-14 09:49:00,
2013-07-14 05:59:00,71.2,70.3,30.00,NNE,32,0.0,1.0,97,0.01,,,0.01,Weather View 32 v70,2013-07-14 09:59:00,
2013-07-14 06:09:00,71.3,70.4,30.00,NNE,32,0.0,0.0,97,0.01,,,0.01,Weather View 32 v70,2013-07-14 10:09:00,
2013-07-14 06:19:00,72.3,71.4,30.00,NE,40,0.0,0.0,97,0.00,,,0.01,Weather View 32 v70,2013-07-14 10:19:00,
2013-07-14 06:29:00,72.4,71.5,30.00,NE,53,0.0,0.0,97,0.00,,,0.01,Weather View 32 v70,2013-07-14 10:29:00,
2013-07-14 06:39:00,72.3,71.4,30.00,NE,53,0.0,0.0,97,0.00,,,0.01,Weather View 32 v70,2013-07-14 10:39:00,
2013-07-14 06:49:00,73.0,72.1,30.00,ENE,78,0.0,0.0,97,0.00,,,0.01,Weather View 32 v70,2013-07-14 10:49:00,
2013-07-14 06:59:00,72.8,71.9,30.00,East,81,0.0,0.0,97,0.00,,,0.01,Weather View 32 v70,2013-07-14 10:59:00,
2013-07-14 07:09:00,72.5,71.6,30.01,East,80,0.0,0.0,97,0.00,,,0.01,Weather View 32 v70,2013-07-14 11:09:00,
2013-07-14 07:20:00,72.6,71.7,30.01,ENE,78,0.0,0.0,97,0.00,,,0.01,Weather View 32 v70,2013-07-14 11:20:00,
2013-07-14 07:29:00,72.8,71.9,30.01,ESE,114,0.0,0.0,97,0.00,,,0.01,Weather View 32 v70,2013-07-14 11:29:00,
2013-07-14 07:39:00,73.4,72.5,30.01,East,94,0.0,0.0,97,0.00,,,0.01,Weather View 32 v70,2013-07-14 11:39:00,
2013-07-14 07:49:00,73.4,72.5,30.01,ENE,64,0.0,0.0,97,0.00,,,0.01,Weather View 32 v70,2013-07-14 11:49:00,
2013-07-14 07:59:00,73.0,72.1,30.02,East,82,0.0,0.0,97,0.00,,,0.01,Weather View 32 v70,2013-07-14 11:59:00,
2013-07-14 08:09:00,73.5,72.6,30.03,ESE,108,0.0,0.0,97,0.00,,,0.01,Weather View 32 v70,2013-07-14 12:09:00,
2013-07-14 08:19:00,73.7,72.8,30.03,SSE,165,0.0,0.0,97,0.00,,,0.01,Weather View 32 v70,2013-07-14 12:19:00,
2013-07-14 08:29:00,73.2,72.0,30.03,SE,144,2.0,4.0,96,0.00,,,0.01,Weather View 32 v70,2013-07-14 12:29:00,
2013-07-14 08:39:00,73.4,72.2,30.04,SE,127,2.0,4.0,96,0.00,,,0.01,Weather View 32 v70,2013-07-14 12:39:00,
2013-07-14 08:49:00,73.5,72.3,30.04,ESE,121,0.0,4.0,96,0.00,,,0.01,Weather View 32 v70,2013-07-14 12:49:00,
2013-07-14 08:59:00,73.5,72.0,30.05,SE,134,0.0,4.0,95,0.00,,,0.01,Weather View 32 v70,2013-07-14 12:59:00,
2013-07-14 09:03:00,73.5,72.0,30.05,SE,134,0.0,4.0,95,0.00,,,0.01,Weather View 32 v70,2013-07-14 13:03:00,
2013-07-14 09:09:00,74.0,72.5,30.05,SE,134,0.0,4.0,95,0.00,,,0.01,Weather View 32 v70,2013-07-14 13:09:00,
2013-07-14 09:19:00,74.3,72.8,30.05,ENE,62,2.0,4.0,95,0.00,,,0.01,Weather View 32 v70,2013-07-14 13:19:00,
2013-07-14 09:29:00,74.3,72.5,30.05,NE,53,0.0,4.0,94,0.00,,,0.01,Weather View 32 v70,2013-07-14 13:29:00,
2013-07-14 09:39:00,75.3,73.4,30.06,East,79,0.0,4.0,94,0.00,,,0.01,Weather View 32 v70,2013-07-14 13:39:00,
2013-07-14 09:49:00,75.8,73.9,30.06,ESE,118,0.0,6.0,94,0.00,,,0.01,Weather View 32 v70,2013-07-14 13:49:00,
2013-07-14 09:59:00,76.2,73.4,30.06,ESE,118,0.0,6.0,91,0.00,,,0.01,Weather View 32 v70,2013-07-14 13:59:00,
2013-07-14 10:04:00,76.2,73.4,30.06,ESE,118,0.0,6.0,91,0.00,,,0.01,Weather View 32 v70,2013-07-14 14:04:00,
2013-07-14 10:09:00,76.7,73.9,30.06,ESE,114,0.0,6.0,91,0.00,,,0.01,Weather View 32 v70,2013-07-14 14:09:00,
2013-07-14 10:19:00,77.0,74.5,30.06,ESE,121,3.0,6.0,92,0.00,,,0.01,Weather View 32 v70,2013-07-14 14:19:00,
2013-07-14 10:29:00,77.6,74.8,30.06,ESE,104,0.0,6.0,91,0.00,,,0.01,Weather View 32 v70,2013-07-14 14:29:00,
2013-07-14 10:39:00,78.1,73.9,30.06,SE,134,0.0,6.0,87,0.00,,,0.01,Weather View 32 v70,2013-07-14 14:39:00,
2013-07-14 10:49:00,78.7,74.8,30.07,East,94,1.0,5.0,88,0.00,,,0.01,Weather View 32 v70,2013-07-14 14:49:00,
2013-07-14 10:59:00,78.4,74.2,30.07,SSE,166,1.0,5.0,87,0.00,,,0.01,Weather View 32 v70,2013-07-14 14:59:00,
2013-07-14 11:04:00,78.4,74.2,30.07,SSE,166,1.0,5.0,87,0.00,,,0.01,Weather View 32 v70,2013-07-14 15:04:00,
2013-07-14 11:09:00,78.5,74.6,30.07,ESE,110,0.0,6.0,88,0.00,,,0.01,Weather View 32 v70,2013-07-14 15:09:00,
2013-07-14 11:19:00,78.6,74.0,30.07,SSE,152,0.0,6.0,86,0.00,,,0.01,Weather View 32 v70,2013-07-14 15:19:00,
2013-07-14 11:29:00,79.5,74.9,30.07,SE,142,2.0,6.0,86,0.00,,,0.01,Weather View 32 v70,2013-07-14 15:29:00,
2013-07-14 11:39:00,79.7,74.8,30.07,ESE,111,0.0,6.0,85,0.00,,,0.01,Weather View 32 v70,2013-07-14 15:39:00,
2013-07-14 11:49:00,79.8,74.9,30.07,SE,129,0.0,6.0,85,0.00,,,0.01,Weather View 32 v70,2013-07-14 15:49:00,
2013-07-14 11:59:00,80.3,75.4,30.07,ESE,108,0.0,6.0,85,0.00,,,0.01,Weather View 32 v70,2013-07-14 15:59:00,
2013-07-14 12:05:00,80.3,75.4,30.07,ESE,108,0.0,6.0,85,0.00,,,0.01,Weather View 32 v70,2013-07-14 16:05:00,
2013-07-14 12:09:00,80.7,75.0,30.07,ESE,119,0.0,5.0,83,0.00,,,0.01,Weather View 32 v70,2013-07-14 16:09:00,
2013-07-14 12:19:00,81.0,75.3,30.07,ENE,78,0.0,5.0,83,0.00,,,0.01,Weather View 32 v70,2013-07-14 16:19:00,
2013-07-14 12:29:00,81.2,75.5,30.08,East,79,2.0,7.0,83,0.00,,,0.01,Weather View 32 v70,2013-07-14 16:29:00,
2013-07-14 12:39:00,81.2,74.8,30.08,ENE,72,4.0,7.0,81,0.00,,,0.01,Weather View 32 v70,2013-07-14 16:39:00,
2013-07-14 12:49:00,81.3,75.6,30.08,ESE,117,2.0,7.0,83,0.00,,,0.01,Weather View 32 v70,2013-07-14 16:49:00,
2013-07-14 12:59:00,81.2,75.9,30.08,ENE,59,7.0,7.0,84,0.00,,,0.01,Weather View 32 v70,2013-07-14 16:59:00,
2013-07-14 13:06:00,81.2,75.9,30.08,ENE,59,7.0,7.0,84,0.00,,,0.01,Weather View 32 v70,2013-07-14 17:06:00,
2013-07-14 13:09:00,80.3,75.0,30.08,East,98,1.0,8.0,84,0.00,,,0.01,Weather View 32 v70,2013-07-14 17:09:00,
2013-07-14 13:19:00,80.0,75.4,30.08,ENE,61,3.0,8.0,86,0.00,,,0.01,Weather View 32 v70,2013-07-14 17:19:00,
2013-07-14 13:29:00,79.4,75.2,30.08,NE,43,3.0,8.0,87,0.00,,,0.01,Weather View 32 v70,2013-07-14 17:29:00,
2013-07-14 13:39:00,79.3,75.1,30.08,NNE,32,5.0,8.0,87,0.00,,,0.01,Weather View 32 v70,2013-07-14 17:39:00,
2013-07-14 13:49:00,79.2,75.3,30.07,ENE,67,3.0,8.0,88,0.00,,,0.01,Weather View 32 v70,2013-07-14 17:49:00,
2013-07-14 13:59:00,79.3,75.1,30.07,NE,47,2.0,8.0,87,0.00,,,0.01,Weather View 32 v70,2013-07-14 17:59:00,
2013-07-14 14:07:00,79.3,75.1,30.07,NE,47,2.0,8.0,87,0.00,,,0.01,Weather View 32 v70,2013-07-14 18:07:00,
2013-07-14 14:19:00,79.7,75.1,30.07,ENE,70,7.0,8.0,86,0.00,,,0.01,Weather View 32 v70,2013-07-14 18:19:00,
2013-07-14 14:29:00,79.7,75.5,30.07,NNE,30,7.0,10.0,87,0.00,,,0.01,Weather View 32 v70,2013-07-14 18:29:00,
2013-07-14 14:39:00,79.7,75.5,30.07,ENE,69,7.0,14.0,87,0.00,,,0.01,Weather View 32 v70,2013-07-14 18:39:00,
2013-07-14 14:49:00,79.7,75.1,30.07,NE,53,7.0,14.0,86,0.00,,,0.01,Weather View 32 v70,2013-07-14 18:49:00,
2013-07-14 14:59:00,80.0,74.7,30.07,NE,44,8.0,14.0,84,0.00,,,0.01,Weather View 32 v70,2013-07-14 18:59:00,
2013-07-14 15:07:00,80.0,74.7,30.07,NE,44,8.0,14.0,84,0.00,,,0.01,Weather View 32 v70,2013-07-14 19:07:00,
2013-07-14 15:09:00,80.7,75.7,30.06,NNE,21,4.0,14.0,85,0.00,,,0.01,Weather View 32 v70,2013-07-14 19:09:00,
2013-07-14 15:19:00,81.5,74.3,30.05,East,92,5.0,14.0,79,0.00,,,0.01,Weather View 32 v70,2013-07-14 19:19:00,
2013-07-14 15:29:00,81.7,74.5,30.05,NE,54,7.0,14.0,79,0.00,,,0.01,Weather View 32 v70,2013-07-14 19:29:00,
2013-07-14 15:39:00,83.0,75.0,30.05,East,90,3.0,14.0,77,0.00,,,0.01,Weather View 32 v70,2013-07-14 19:39:00,
2013-07-14 15:49:00,82.7,75.1,30.05,East,97,3.0,12.0,78,0.00,,,0.01,Weather View 32 v70,2013-07-14 19:49:00,
2013-07-14 15:59:00,82.9,75.7,30.06,ENE,58,4.0,12.0,79,0.00,,,0.01,Weather View 32 v70,2013-07-14 19:59:00,
2013-07-14 16:08:00,82.9,75.7,30.06,ENE,58,4.0,12.0,79,0.00,,,0.01,Weather View 32 v70,2013-07-14 20:08:00,
2013-07-14 16:09:00,82.3,75.5,30.06,ENE,67,3.0,13.0,80,0.00,,,0.01,Weather View 32 v70,2013-07-14 20:09:00,
2013-07-14 16:19:00,81.6,75.2,30.06,East,79,6.0,13.0,81,0.00,,,0.01,Weather View 32 v70,2013-07-14 20:19:00,
2013-07-14 16:29:00,81.2,75.5,30.07,SE,126,2.0,13.0,83,0.00,,,0.01,Weather View 32 v70,2013-07-14 20:29:00,
2013-07-14 16:39:00,80.7,75.7,30.07,East,90,5.0,13.0,85,0.00,,,0.01,Weather View 32 v70,2013-07-14 20:39:00,
2013-07-14 16:49:00,80.3,75.4,30.06,East,84,2.0,13.0,85,0.00,,,0.01,Weather View 32 v70,2013-07-14 20:49:00,
2013-07-14 16:59:00,80.5,75.6,30.06,East,95,11.0,13.0,85,0.00,,,0.01,Weather View 32 v70,2013-07-14 20:59:00,
2013-07-14 17:08:00,80.5,75.6,30.06,East,95,11.0,13.0,85,0.00,,,0.01,Weather View 32 v70,2013-07-14 21:08:00,
2013-07-14 17:09:00,80.7,75.4,30.06,ENE,65,5.0,13.0,84,0.00,,,0.01,Weather View 32 v70,2013-07-14 21:09:00,
2013-07-14 17:19:00,80.8,75.5,30.06,SE,137,4.0,13.0,84,0.00,,,0.01,Weather View 32 v70,2013-07-14 21:19:00,
2013-07-14 17:29:00,80.7,74.7,30.05,ESE,113,3.0,17.0,82,0.00,,,0.01,Weather View 32 v70,2013-07-14 21:29:00,
2013-07-14 17:39:00,81.4,75.7,30.05,ESE,119,4.0,17.0,83,0.00,,,0.01,Weather View 32 v70,2013-07-14 21:39:00,
2013-07-14 17:49:00,82.0,75.6,30.05,ESE,103,1.0,17.0,81,0.00,,,0.01,Weather View 32 v70,2013-07-14 21:49:00,
2013-07-14 17:59:00,82.2,73.8,30.04,ENE,69,9.0,17.0,76,0.00,,,0.01,Weather View 32 v70,2013-07-14 21:59:00,
2013-07-14 18:09:00,82.2,73.8,30.04,ENE,69,9.0,17.0,76,0.00,,,0.01,Weather View 32 v70,2013-07-14 22:09:00,
2013-07-14 18:19:00,81.8,74.2,30.04,ENE,72,9.0,17.0,78,0.00,,,0.01,Weather View 32 v70,2013-07-14 22:19:00,
2013-07-14 18:29:00,81.6,74.4,30.03,NE,48,5.0,13.0,79,0.00,,,0.01,Weather View 32 v70,2013-07-14 22:29:00,
2013-07-14 18:39:00,81.3,73.8,30.04,ENE,63,5.0,13.0,78,0.00,,,0.01,Weather View 32 v70,2013-07-14 22:39:00,
2013-07-14 18:49:00,80.9,73.7,30.04,ESE,107,3.0,13.0,79,0.00,,,0.01,Weather View 32 v70,2013-07-14 22:49:00,
2013-07-14 18:59:00,80.9,74.1,30.05,NE,45,9.0,13.0,80,0.00,,,0.01,Weather View 32 v70,2013-07-14 22:59:00,
2013-07-14 19:09:00,81.0,74.6,30.05,ENE,63,7.0,13.0,81,0.00,,,0.01,Weather View 32 v70,2013-07-14 23:09:00,
2013-07-14 19:19:00,80.7,74.7,30.06,East,89,5.0,11.0,82,0.00,,,0.01,Weather View 32 v70,2013-07-14 23:19:00,
2013-07-14 19:29:00,80.5,74.8,30.06,East,88,2.0,11.0,83,0.00,,,0.01,Weather View 32 v70,2013-07-14 23:29:00,
2013-07-14 19:39:00,80.4,74.4,30.07,East,100,2.0,11.0,82,0.00,,,0.01,Weather View 32 v70,2013-07-14 23:39:00,
2013-07-14 19:49:00,80.1,74.4,30.07,ENE,77,1.0,11.0,83,0.00,,,0.01,Weather View 32 v70,2013-07-14 23:49:00,
2013-07-14 19:59:00,79.7,74.1,30.08,ENE,76,1.0,11.0,83,0.00,,,0.01,Weather View 32 v70,2013-07-14 23:59:00,
2013-07-14 20:10:00,79.4,74.5,30.08,ENE,61,1.0,11.0,85,0.00,,,0.01,Weather View 32 v70,2013-07-15 00:10:00,
2013-07-14 20:19:00,79.2,74.3,30.08,East,89,2.0,6.0,85,0.00,,,0.01,Weather View 32 v70,2013-07-15 00:19:00,
2013-07-14 20:29:00,78.9,74.0,30.08,ENE,62,2.0,6.0,85,0.00,,,0.01,Weather View 32 v70,2013-07-15 00:29:00,
2013-07-14 20:39:00,78.5,73.9,30.08,NE,40,1.0,4.0,86,0.00,,,0.01,Weather View 32 v70,2013-07-15 00:39:00,
2013-07-14 20:49:00,77.8,73.6,30.08,ENE,59,0.0,4.0,87,0.00,,,0.01,Weather View 32 v70,2013-07-15 00:49:00,
2013-07-14 20:59:00,77.6,73.7,30.08,ENE,59,0.0,3.0,88,0.00,,,0.01,Weather View 32 v70,2013-07-15 00:59:00,
2013-07-14 21:09:00,77.6,73.7,30.08,NE,40,0.0,3.0,88,0.00,,,0.01,Weather View 32 v70,2013-07-15 01:09:00,
2013-07-14 21:19:00,77.4,73.9,30.08,NE,36,0.0,3.0,89,0.00,,,0.01,Weather View 32 v70,2013-07-15 01:19:00,
2013-07-14 21:29:00,77.3,73.8,30.08,NE,37,0.0,3.0,89,0.00,,,0.01,Weather View 32 v70,2013-07-15 01:29:00,
2013-07-14 21:39:00,77.2,73.7,30.09,NE,44,0.0,2.0,89,0.00,,,0.01,Weather View 32 v70,2013-07-15 01:39:00,
2013-07-14 21:49:00,76.9,73.7,30.09,NE,35,0.0,2.0,90,0.00,,,0.01,Weather View 32 v70,2013-07-15 01:49:00,
2013-07-14 21:59:00,76.8,74.0,30.09,NE,41,0.0,0.0,91,0.00,,,0.01,Weather View 32 v70,2013-07-15 01:59:00,
2013-07-14 22:09:00,76.6,73.8,30.10,NE,40,0.0,0.0,91,0.00,,,0.01,Weather View 32 v70,2013-07-15 02:09:00,
2013-07-14 22:11:00,76.6,73.8,30.10,NE,40,0.0,0.0,91,0.00,,,0.01,Weather View 32 v70,2013-07-15 02:11:00,
2013-07-14 22:19:00,76.5,73.7,30.10,NE,46,0.0,0.0,91,0.00,,,0.01,Weather View 32 v70,2013-07-15 02:19:00,
2013-07-14 22:29:00,76.4,73.6,30.10,NE,41,0.0,0.0,91,0.00,,,0.01,Weather View 32 v70,2013-07-15 02:29:00,
2013-07-14 22:39:00,76.2,73.4,30.10,NE,46,0.0,0.0,91,0.00,,,0.01,Weather View 32 v70,2013-07-15 02:39:00,
2013-07-14 22:49:00,76.0,73.5,30.10,NE,41,0.0,0.0,92,0.00,,,0.01,Weather View 32 v70,2013-07-15 02:49:00,
2013-07-14 22:59:00,76.0,73.5,30.10,NE,45,0.0,0.0,92,0.00,,,0.01,Weather View 32 v70,2013-07-15 02:59:00,
2013-07-14 23:09:00,75.8,73.3,30.10,NE,35,0.0,0.0,92,0.00,,,0.01,Weather View 32 v70,2013-07-15 03:09:00,
2013-07-14 23:12:00,75.8,73.3,30.10,NE,35,0.0,0.0,92,0.00,,,0.01,Weather View 32 v70,2013-07-15 03:12:00,
2013-07-14 23:19:00,75.9,73.4,30.10,NNE,30,0.0,0.0,92,0.00,,,0.01,Weather View 32 v70,2013-07-15 03:19:00,
2013-07-14 23:29:00,75.8,73.6,30.10,NE,50,0.0,0.0,93,0.00,,,0.01,Weather View 32 v70,2013-07-15 03:29:00,
2013-07-14 23:39:00,75.7,73.5,30.10,NE,46,0.0,0.0,93,0.00,,,0.01,Weather View 32 v70,2013-07-15 03:39:00,
2013-07-14 23:49:00,75.6,73.4,30.10,NE,41,0.0,0.0,93,0.00,,,0.01,Weather View 32 v70,2013-07-15 03:49:00,
2013-07-14 23:59:00,75.7,73.5,30.10,NE,49,0.0,0.0,93,0.00,,,0.01,Weather View 32 v70,2013-07-15 03:59:00,